createdAt,value
2022-11-25T00:01:13.329Z,10.14
2022-11-25T00:03:41.199Z,10.14
2022-11-25T00:06:08.893Z,10.15
2022-11-25T00:08:35.838Z,10.16
2022-11-25T00:11:03.271Z,10.17
2022-11-25T00:13:30.129Z,10.17
2022-11-25T00:15:56.948Z,10.17
2022-11-25T00:18:23.753Z,10.17
2022-11-25T00:20:50.436Z,10.17
2022-11-25T00:23:17.196Z,10.16
2022-11-25T00:25:43.838Z,10.17
2022-11-25T00:28:10.653Z,10.16
2022-11-25T00:30:37.394Z,10.16
2022-11-25T00:33:04.117Z,10.16
2022-11-25T00:35:30.814Z,10.15
2022-11-25T00:37:57.597Z,10.15
2022-11-25T00:40:24.317Z,10.14
2022-11-25T00:43:09.638Z,10.15
2022-11-25T00:45:37.648Z,10.14
2022-11-25T00:48:06.990Z,10.12
2022-11-25T00:50:33.769Z,10.11
2022-11-25T00:53:00.453Z,10.12
2022-11-25T00:55:47.251Z,10.12
2022-11-25T00:58:14.034Z,10.13
2022-11-25T01:00:40.788Z,10.12
2022-11-25T01:03:07.618Z,10.12
2022-11-25T01:05:34.286Z,10.12
2022-11-25T01:08:01.034Z,10.11
2022-11-25T01:10:27.783Z,10.12
2022-11-25T01:12:54.543Z,10.12
2022-11-25T01:15:21.197Z,10.12
2022-11-25T01:17:47.932Z,10.12
2022-11-25T01:20:16.683Z,10.12
2022-11-25T01:22:43.420Z,10.13
2022-11-25T01:25:10.086Z,10.12
2022-11-25T01:27:40.829Z,10.12
2022-11-25T01:30:08.190Z,10.12
2022-11-25T01:32:34.918Z,10.11
2022-11-25T01:35:01.786Z,10.13
2022-11-25T01:37:28.631Z,10.12
2022-11-25T01:39:55.397Z,10.12
2022-11-25T01:42:22.128Z,10.11
2022-11-25T01:45:27.864Z,10.12
2022-11-25T01:47:58.970Z,10.11
2022-11-25T01:50:26.954Z,10.11
2022-11-25T01:52:54.893Z,10.10
2022-11-25T01:55:28.559Z,10.08
2022-11-25T01:58:16.431Z,10.08
2022-11-25T02:00:51.837Z,10.01
2022-11-25T02:03:24.162Z,9.92
2022-11-25T02:05:59.754Z,9.94
2022-11-25T02:08:27.894Z,9.98
2022-11-25T02:11:01.844Z,10.01
2022-11-25T02:13:28.869Z,10.04
2022-11-25T02:15:55.560Z,10.04
2022-11-25T02:18:25.713Z,10.03
2022-11-25T02:20:52.670Z,10.04
2022-11-25T02:23:25.694Z,10.03
2022-11-25T02:25:54.786Z,10.03
2022-11-25T02:28:23.766Z,10.03
2022-11-25T02:30:51.293Z,10.04
2022-11-25T02:33:18.949Z,10.04
2022-11-25T02:36:12.024Z,10.02
2022-11-25T02:38:43.648Z,10.01
2022-11-25T02:41:16.729Z,10.00
2022-11-25T02:43:46.817Z,10.00
2022-11-25T02:46:22.580Z,9.99
2022-11-25T02:49:08.489Z,9.98
2022-11-25T02:51:37.408Z,9.97
2022-11-25T02:54:04.510Z,9.96
2022-11-25T02:56:33.466Z,9.96
2022-11-25T02:59:01.031Z,9.95
2022-11-25T03:01:31.372Z,9.93
2022-11-25T03:03:59.112Z,9.93
2022-11-25T03:06:27.911Z,9.92
2022-11-25T03:08:54.831Z,9.92
2022-11-25T03:11:42.366Z,9.91
2022-11-25T03:14:09.901Z,9.91
2022-11-25T03:16:36.692Z,9.89
2022-11-25T03:19:04.980Z,9.90
2022-11-25T03:21:31.770Z,9.89
2022-11-25T03:23:58.592Z,9.90
2022-11-25T03:26:26.233Z,9.90
2022-11-25T03:28:53.491Z,9.89
2022-11-25T03:31:20.425Z,9.89
2022-11-25T03:33:47.225Z,9.89
2022-11-25T03:36:14.134Z,9.88
2022-11-25T03:38:40.991Z,9.88
2022-11-25T03:41:07.766Z,9.88
2022-11-25T03:43:35.702Z,9.86
2022-11-25T03:46:02.846Z,9.86
2022-11-25T03:48:29.733Z,9.85
2022-11-25T03:50:56.464Z,9.84
2022-11-25T03:53:25.266Z,9.82
2022-11-25T03:55:52.928Z,9.83
2022-11-25T03:58:22.421Z,9.82
2022-11-25T04:00:50.892Z,9.82
2022-11-25T04:03:17.914Z,9.80
2022-11-25T04:05:44.690Z,9.79
2022-11-25T04:08:12.371Z,9.78
2022-11-25T04:10:39.611Z,9.77
2022-11-25T04:13:07.524Z,9.76
2022-11-25T04:15:48.330Z,9.75
2022-11-25T04:18:17.838Z,9.75
2022-11-25T04:20:44.759Z,9.75
2022-11-25T04:23:13.432Z,9.75
2022-11-25T04:25:49.792Z,9.74
2022-11-25T04:28:23.519Z,9.76
2022-11-25T04:30:50.765Z,9.76
2022-11-25T04:33:17.835Z,9.77
2022-11-25T04:35:47.423Z,9.77
2022-11-25T04:38:14.155Z,9.77
2022-11-25T04:40:40.949Z,9.78
2022-11-25T04:43:20.042Z,9.80
2022-11-25T04:46:13.138Z,9.80
2022-11-25T04:48:39.513Z,9.83
2022-11-25T04:51:06.260Z,9.83
2022-11-25T04:53:34.053Z,9.85
2022-11-25T04:56:00.826Z,9.85
2022-11-25T04:58:51.878Z,9.87
2022-11-25T05:01:23.240Z,9.88
2022-11-25T05:03:57.648Z,9.90
2022-11-25T05:06:26.762Z,9.91
2022-11-25T05:08:54.290Z,9.92
2022-11-25T05:11:23.486Z,9.96
2022-11-25T05:13:51.389Z,9.98
2022-11-25T05:16:18.282Z,9.99
2022-11-25T05:18:45.576Z,10.02
2022-11-25T05:21:13.005Z,10.05
2022-11-25T05:23:43.465Z,10.15
2022-11-25T05:26:11.436Z,10.12
2022-11-25T05:28:42.122Z,10.11
2022-11-25T05:31:10.571Z,10.13
2022-11-25T05:33:37.765Z,10.15
2022-11-25T05:36:06.283Z,10.16
2022-11-25T05:38:41.901Z,10.18
2022-11-25T05:41:11.163Z,10.22
2022-11-25T05:43:39.881Z,10.26
2022-11-25T05:46:10.605Z,10.27
2022-11-25T05:48:43.701Z,10.33
2022-11-25T05:51:11.277Z,10.36
2022-11-25T05:53:38.833Z,10.39
2022-11-25T05:56:08.005Z,10.42
2022-11-25T05:59:04.535Z,10.48
2022-11-25T06:01:44.605Z,10.53
2022-11-25T06:04:11.717Z,10.55
2022-11-25T06:06:38.960Z,10.56
2022-11-25T06:09:05.879Z,10.60
2022-11-25T06:11:32.838Z,10.64
2022-11-25T06:13:59.778Z,10.67
2022-11-25T06:16:27.100Z,10.70
2022-11-25T06:19:06.904Z,10.74
2022-11-25T06:21:34.219Z,10.77
2022-11-25T06:24:01.299Z,10.80
2022-11-25T06:26:28.668Z,10.84
2022-11-25T06:28:56.421Z,10.86
2022-11-25T06:31:25.945Z,10.90
2022-11-25T06:34:15.697Z,10.95
2022-11-25T06:36:42.638Z,10.91
2022-11-25T06:39:09.425Z,10.88
2022-11-25T06:41:36.274Z,10.82
2022-11-25T06:44:03.011Z,10.71
2022-11-25T06:46:29.964Z,10.67
2022-11-25T06:49:04.348Z,10.64
2022-11-25T06:51:31.954Z,10.61
2022-11-25T06:53:59.057Z,10.53
2022-11-25T06:56:36.868Z,10.52
2022-11-25T06:59:04.181Z,10.53
2022-11-25T07:01:31.353Z,10.52
2022-11-25T07:04:04.109Z,10.53
2022-11-25T07:06:32.258Z,10.52
2022-11-25T07:08:59.125Z,10.54
2022-11-25T07:11:28.586Z,10.55
2022-11-25T07:14:02.256Z,10.57
2022-11-25T07:16:31.792Z,10.54
2022-11-25T07:19:02.069Z,10.57
2022-11-25T07:21:31.031Z,10.55
2022-11-25T07:24:05.133Z,10.52
2022-11-25T07:26:34.760Z,10.54
2022-11-25T07:29:03.794Z,10.55
2022-11-25T07:31:41.550Z,10.57
2022-11-25T07:34:21.042Z,10.60
2022-11-25T07:36:49.135Z,10.61
2022-11-25T07:39:21.779Z,10.62
2022-11-25T07:41:53.131Z,10.68
2022-11-25T07:44:20.858Z,10.74
2022-11-25T07:46:59.231Z,10.79
2022-11-25T07:49:26.378Z,10.79
2022-11-25T07:51:55.304Z,10.80
2022-11-25T07:54:22.912Z,10.85
2022-11-25T07:56:50.789Z,10.87
2022-11-25T07:59:19.591Z,10.92
2022-11-25T08:01:46.758Z,10.98
2022-11-25T08:04:20.016Z,10.98
2022-11-25T08:06:49.940Z,10.97
2022-11-25T08:09:19.713Z,11.02
2022-11-25T08:11:48.455Z,11.06
2022-11-25T08:14:16.069Z,11.09
2022-11-25T08:16:43.202Z,11.16
2022-11-25T08:19:13.906Z,11.17
2022-11-25T08:21:41.138Z,11.15
2022-11-25T08:24:08.948Z,11.05
2022-11-25T08:26:37.677Z,11.10
2022-11-25T08:29:06.403Z,11.07
2022-11-25T08:31:35.815Z,11.12
2022-11-25T08:34:02.746Z,11.27
2022-11-25T08:36:30.331Z,11.34
2022-11-25T08:38:59.910Z,11.38
2022-11-25T08:41:29.625Z,11.45
2022-11-25T08:43:57.712Z,11.58
2022-11-25T08:46:27.781Z,11.65
2022-11-25T08:48:55.853Z,11.69
2022-11-25T08:51:25.914Z,11.68
2022-11-25T08:53:52.687Z,11.67
2022-11-25T08:56:25.740Z,11.53
2022-11-25T08:58:55.739Z,11.54
2022-11-25T09:01:24.109Z,11.58
2022-11-25T09:03:54.275Z,11.61
2022-11-25T09:06:21.940Z,11.64
2022-11-25T09:08:48.945Z,11.67
2022-11-25T09:11:15.783Z,11.69
2022-11-25T09:13:42.762Z,11.65
2022-11-25T09:16:09.998Z,11.67
2022-11-25T09:18:37.286Z,11.68
2022-11-25T09:21:12.374Z,11.66
2022-11-25T09:23:39.859Z,11.65
2022-11-25T09:26:07.373Z,11.71
2022-11-25T09:28:35.245Z,11.78
2022-11-25T09:31:09.554Z,11.89
2022-11-25T09:33:36.663Z,11.98
2022-11-25T09:36:04.493Z,12.02
2022-11-25T09:38:31.376Z,12.01
2022-11-25T09:41:02.498Z,12.03
2022-11-25T09:44:09.749Z,11.98
2022-11-25T09:47:01.458Z,11.93
2022-11-25T09:50:09.997Z,11.94
2022-11-25T09:52:44.842Z,11.90
2022-11-25T09:55:24.557Z,11.92
2022-11-25T09:58:13.054Z,11.97
2022-11-25T10:00:45.424Z,11.98
2022-11-25T10:03:33.818Z,11.94
2022-11-25T10:06:20.702Z,11.75
2022-11-25T10:08:58.288Z,11.75
2022-11-25T10:11:28.565Z,11.74
2022-11-25T10:13:57.864Z,11.75
2022-11-25T10:16:46.016Z,11.48
2022-11-25T10:19:21.653Z,11.48
2022-11-25T10:21:53.617Z,11.47
2022-11-25T10:24:21.554Z,11.59
2022-11-25T10:27:01.533Z,11.68
2022-11-25T10:29:30.465Z,11.82
2022-11-25T10:32:05.197Z,11.92
2022-11-25T10:34:39.393Z,12.06
2022-11-25T10:37:12.670Z,12.02
2022-11-25T10:39:39.725Z,12.09
2022-11-25T10:42:14.642Z,12.21
2022-11-25T10:44:42.054Z,12.36
2022-11-25T10:47:36.738Z,12.50
2022-11-25T10:50:13.107Z,12.65
2022-11-25T10:52:45.249Z,12.76
2022-11-25T10:55:15.410Z,12.79
2022-11-25T10:57:43.087Z,12.81
2022-11-25T11:00:37.251Z,12.77
2022-11-25T11:03:39.673Z,12.73
2022-11-25T11:06:06.615Z,12.71
2022-11-25T11:08:40.316Z,12.64
2022-11-25T11:11:16.605Z,12.58
2022-11-25T11:13:44.824Z,12.52
2022-11-25T11:16:27.268Z,12.47
2022-11-25T11:18:55.120Z,12.40
2022-11-25T11:21:31.700Z,12.49
2022-11-25T11:23:59.885Z,12.57
2022-11-25T11:26:30.940Z,12.42
2022-11-25T11:29:17.203Z,12.41
2022-11-25T11:31:50.647Z,12.33
2022-11-25T11:34:50.233Z,12.45
2022-11-25T11:37:38.599Z,12.68
2022-11-25T11:40:33.478Z,12.75
2022-11-25T11:43:06.534Z,12.75
2022-11-25T11:45:55.321Z,12.75
2022-11-25T11:48:41.638Z,12.79
2022-11-25T11:51:34.563Z,12.91
2022-11-25T11:54:17.552Z,12.96
2022-11-25T11:56:55.085Z,13.05
2022-11-25T11:59:46.704Z,13.11
2022-11-25T12:02:20.622Z,13.10
2022-11-25T12:04:53.482Z,13.13
2022-11-25T12:07:36.036Z,13.14
2022-11-25T12:10:10.758Z,13.15
2022-11-25T12:12:42.070Z,13.20
2022-11-25T12:15:24.371Z,13.28
2022-11-25T12:17:54.407Z,13.42
2022-11-25T12:20:55.383Z,13.53
2022-11-25T12:23:41.063Z,13.60
2022-11-25T12:26:22.841Z,13.53
2022-11-25T12:28:58.002Z,13.44
2022-11-25T12:31:30.507Z,13.43
2022-11-25T12:34:06.201Z,13.43
2022-11-25T12:36:38.074Z,13.42
2022-11-25T12:39:29.394Z,13.44
2022-11-25T12:41:59.518Z,13.46
2022-11-25T12:44:44.270Z,13.52
2022-11-25T12:47:11.674Z,13.56
2022-11-25T12:49:43.040Z,13.60
2022-11-25T12:52:34.040Z,13.63
2022-11-25T12:55:09.545Z,13.59
2022-11-25T12:58:05.578Z,13.62
2022-11-25T13:00:42.662Z,13.76
2022-11-25T13:03:30.844Z,13.75
2022-11-25T13:06:40.798Z,13.60
2022-11-25T13:09:10.387Z,13.63
2022-11-25T13:12:02.890Z,13.66
2022-11-25T13:14:42.057Z,13.65
2022-11-25T13:17:12.905Z,13.47
2022-11-25T13:19:39.960Z,13.33
2022-11-25T13:22:27.222Z,13.18
2022-11-25T13:24:54.049Z,13.18
2022-11-25T13:27:36.033Z,13.12
2022-11-25T13:30:03.928Z,13.16
2022-11-25T13:32:38.746Z,13.15
2022-11-25T13:35:24.693Z,13.14
2022-11-25T13:37:51.645Z,13.14
2022-11-25T13:40:33.785Z,13.08
2022-11-25T13:43:00.811Z,13.03
2022-11-25T13:45:36.212Z,12.95
2022-11-25T13:48:17.917Z,12.84
2022-11-25T13:51:10.253Z,12.71
2022-11-25T13:53:35.965Z,12.62
2022-11-25T13:56:33.652Z,12.58
2022-11-25T13:59:15.731Z,12.54
2022-11-25T14:01:46.625Z,12.53
2022-11-25T14:04:14.685Z,12.52
2022-11-25T14:06:58.314Z,12.47
2022-11-25T14:09:55.423Z,12.46
2022-11-25T14:12:33.990Z,12.46
2022-11-25T14:15:12.420Z,12.49
2022-11-25T14:18:00.295Z,12.42
2022-11-25T14:20:45.038Z,12.37
2022-11-25T14:23:40.056Z,12.31
2022-11-25T14:26:34.070Z,12.28
2022-11-25T14:29:12.522Z,12.33
2022-11-25T14:31:44.547Z,12.45
2022-11-25T14:34:20.362Z,12.59
2022-11-25T14:37:09.205Z,12.66
2022-11-25T14:39:59.806Z,12.71
2022-11-25T14:42:32.049Z,12.72
2022-11-25T14:44:59.497Z,12.69
2022-11-25T14:47:28.670Z,12.54
2022-11-25T14:52:47.573Z,12.43
2022-11-25T14:55:25.135Z,12.42
2022-11-25T14:57:52.367Z,12.37
2022-11-25T15:00:19.541Z,12.35
2022-11-25T15:03:17.040Z,12.28
2022-11-25T15:05:43.897Z,12.24
2022-11-25T15:08:15.999Z,12.21
2022-11-25T15:10:50.254Z,12.16
2022-11-25T15:13:25.291Z,12.09
2022-11-25T15:15:52.856Z,12.05
2022-11-25T15:18:22.373Z,12.03
2022-11-25T15:20:56.423Z,11.96
2022-11-25T15:23:28.352Z,11.85
2022-11-25T15:25:55.426Z,11.76
2022-11-25T15:28:22.155Z,11.69
2022-11-25T15:31:00.178Z,11.55
2022-11-25T15:33:29.249Z,11.52
2022-11-25T15:35:56.207Z,11.49
2022-11-25T15:38:45.482Z,11.41
2022-11-25T15:41:33.934Z,11.27
2022-11-25T15:44:05.188Z,11.06
2022-11-25T15:46:34.832Z,10.82
2022-11-25T15:49:04.937Z,10.68
2022-11-25T15:51:41.864Z,10.57
2022-11-25T15:54:30.275Z,10.43
2022-11-25T15:57:03.524Z,10.37
2022-11-25T15:59:56.095Z,10.36
2022-11-25T16:02:41.925Z,10.43
2022-11-25T16:05:15.021Z,10.39
2022-11-25T16:07:50.952Z,10.32
2022-11-25T16:10:23.495Z,10.13
2022-11-25T16:13:36.560Z,10.06
2022-11-25T16:16:29.520Z,10.07
2022-11-25T16:19:02.247Z,10.10
2022-11-25T16:21:35.112Z,10.08
2022-11-25T16:24:05.390Z,10.11
2022-11-25T16:26:37.494Z,10.16
2022-11-25T16:29:18.710Z,10.15
2022-11-25T16:31:45.806Z,10.14
2022-11-25T16:34:18.722Z,10.09
2022-11-25T16:36:45.997Z,10.07
2022-11-25T16:39:13.159Z,9.96
2022-11-25T16:41:41.710Z,9.89
2022-11-25T16:44:27.181Z,9.84
2022-11-25T16:46:54.332Z,9.96
2022-11-25T16:49:22.603Z,10.11
2022-11-25T16:51:53.242Z,10.26
2022-11-25T16:54:20.577Z,10.46
2022-11-25T16:56:49.833Z,10.52
2022-11-25T16:59:26.850Z,10.60
2022-11-25T17:01:53.768Z,10.69
2022-11-25T17:04:20.495Z,10.76
2022-11-25T17:07:16.510Z,10.83
2022-11-25T17:09:34.710Z,10.93
2022-11-25T17:12:01.645Z,10.98
2022-11-25T17:14:31.579Z,11.04
2022-11-25T17:16:59.819Z,11.09
2022-11-25T17:19:26.823Z,11.13
2022-11-25T17:21:53.685Z,11.17
2022-11-25T17:32:29.995Z,11.29
2022-11-25T17:34:56.718Z,11.32
2022-11-25T17:37:24.642Z,11.34
2022-11-25T17:39:54.265Z,11.36
2022-11-25T17:42:29.173Z,11.38
2022-11-25T17:44:56.099Z,11.40
2022-11-25T17:47:23.035Z,11.42
2022-11-25T17:49:49.919Z,11.43
2022-11-25T17:52:16.726Z,11.44
2022-11-25T17:54:43.440Z,11.44
2022-11-25T17:57:15.007Z,11.45
2022-11-25T17:59:41.816Z,11.48
2022-11-25T18:02:18.666Z,11.48
2022-11-25T18:04:45.800Z,11.50
2022-11-25T18:07:12.536Z,11.50
2022-11-25T18:09:39.370Z,11.52
2022-11-25T18:12:25.302Z,11.52
2022-11-25T18:14:52.131Z,11.53
2022-11-25T18:17:19.376Z,11.54
2022-11-25T18:19:51.439Z,11.57
2022-11-25T18:22:21.663Z,11.58
2022-11-25T18:24:48.493Z,11.58
2022-11-25T18:27:26.871Z,11.61
2022-11-25T18:29:54.291Z,11.62
2022-11-25T18:32:22.668Z,11.64
2022-11-25T18:34:49.926Z,11.66
2022-11-25T18:37:16.702Z,11.67
2022-11-25T18:39:43.590Z,11.69
2022-11-25T18:42:23.794Z,11.70
2022-11-25T18:44:50.630Z,11.73
2022-11-25T18:47:17.342Z,11.73
2022-11-25T18:49:44.087Z,11.75
2022-11-25T18:52:10.794Z,11.77
2022-11-25T18:54:37.755Z,11.81
2022-11-25T18:57:05.326Z,11.82
2022-11-25T18:59:37.247Z,11.84
2022-11-25T19:02:09.146Z,11.85
2022-11-25T19:04:36.378Z,11.87
2022-11-25T19:07:03.273Z,11.89
2022-11-25T19:09:30.050Z,11.89
2022-11-25T19:11:56.965Z,11.92
2022-11-25T19:14:29.156Z,11.92
2022-11-25T19:16:57.237Z,11.94
2022-11-25T19:19:24.040Z,11.95
2022-11-25T19:21:50.864Z,11.97
2022-11-25T19:24:17.550Z,11.98
2022-11-25T19:26:47.385Z,11.98
2022-11-25T19:29:19.652Z,11.96
2022-11-25T19:31:47.552Z,11.99
2022-11-25T19:34:27.434Z,12.01
2022-11-25T19:36:54.185Z,12.04
2022-11-25T19:39:20.854Z,12.06
2022-11-25T19:41:48.001Z,12.07
2022-11-25T19:44:15.286Z,12.09
2022-11-25T19:47:13.907Z,12.10
2022-11-25T19:49:34.567Z,12.13
2022-11-25T19:52:01.285Z,12.13
2022-11-25T19:54:29.528Z,12.13
2022-11-25T19:56:56.230Z,12.15
2022-11-25T19:59:23.002Z,12.15
2022-11-25T20:01:49.766Z,12.17
2022-11-25T20:04:21.458Z,12.16
2022-11-25T20:06:49.391Z,12.17
2022-11-25T20:09:16.188Z,12.18
2022-11-25T20:11:43.323Z,12.19
2022-11-25T20:14:10.123Z,12.20
2022-11-25T20:16:40.781Z,12.21
2022-11-25T20:19:11.214Z,12.23
2022-11-25T20:21:40.231Z,12.24
2022-11-25T20:24:13.881Z,12.24
2022-11-25T20:26:42.826Z,12.26
2022-11-25T20:29:23.608Z,12.26
2022-11-25T20:31:55.622Z,12.27
2022-11-25T20:34:22.409Z,12.29
2022-11-25T20:36:49.369Z,12.29
2022-11-25T20:39:18.494Z,12.29
2022-11-25T20:41:49.793Z,12.29
2022-11-25T20:44:16.823Z,12.30
2022-11-25T20:46:43.601Z,12.32
2022-11-25T20:49:22.574Z,12.32
2022-11-25T20:51:49.829Z,12.33
2022-11-25T20:54:17.746Z,12.34
2022-11-25T20:56:45.171Z,12.35
2022-11-25T20:59:23.331Z,12.35
2022-11-25T21:01:51.255Z,12.36
2022-11-25T21:04:18.489Z,12.36
2022-11-25T21:06:45.653Z,12.37
2022-11-25T21:09:24.244Z,12.38
2022-11-25T21:11:51.434Z,12.38
2022-11-25T21:14:19.809Z,12.39
2022-11-25T21:16:52.527Z,12.40
2022-11-25T21:19:19.917Z,12.41
2022-11-25T21:21:48.992Z,12.41
2022-11-25T21:24:30.322Z,12.41
2022-11-25T21:27:02.894Z,12.41
2022-11-25T21:29:31.996Z,12.43
2022-11-25T21:31:58.787Z,12.44
2022-11-25T21:34:46.370Z,12.44
2022-11-25T21:37:13.269Z,12.46
2022-11-25T21:39:40.046Z,12.44
2022-11-25T21:42:07.927Z,12.43
2022-11-25T21:44:37.134Z,12.43
2022-11-25T21:47:14.234Z,12.43
2022-11-25T21:49:41.120Z,12.43
2022-11-25T21:52:07.775Z,12.45
2022-11-25T21:54:35.057Z,12.44
2022-11-25T21:57:03.903Z,12.44
2022-11-25T21:59:35.437Z,12.45
2022-11-25T22:02:02.597Z,12.43
2022-11-25T22:04:29.618Z,12.42
2022-11-25T22:06:57.153Z,12.42
2022-11-25T22:09:26.742Z,12.42
2022-11-25T22:11:53.702Z,12.42
2022-11-25T22:14:35.028Z,12.40
2022-11-25T22:17:05.415Z,12.41
2022-11-25T22:19:32.554Z,12.42
2022-11-25T22:21:59.952Z,12.43
2022-11-25T22:24:33.636Z,12.42
2022-11-25T22:27:00.648Z,12.41
2022-11-25T22:29:32.326Z,12.42
2022-11-25T22:31:59.341Z,12.44
2022-11-25T22:34:26.482Z,12.43
2022-11-25T22:36:53.779Z,12.43
2022-11-25T22:39:25.590Z,12.43
2022-11-25T22:41:54.793Z,12.43
2022-11-25T22:44:34.482Z,12.41
2022-11-25T22:47:01.649Z,12.42
2022-11-25T22:49:47.491Z,12.42
2022-11-25T22:52:18.065Z,12.39
2022-11-25T22:54:44.826Z,12.38
2022-11-25T22:57:11.566Z,12.37
2022-11-25T22:59:38.380Z,12.37
2022-11-25T23:02:06.147Z,12.35
2022-11-25T23:04:33.011Z,12.34
2022-11-25T23:06:59.728Z,12.33
2022-11-25T23:09:26.398Z,12.33
2022-11-25T23:11:53.081Z,12.31
2022-11-25T23:14:19.788Z,12.30
2022-11-25T23:16:46.707Z,12.28
2022-11-25T23:19:16.839Z,12.26
2022-11-25T23:21:45.630Z,12.26
2022-11-25T23:24:14.560Z,12.23
2022-11-25T23:26:41.602Z,12.23
2022-11-25T23:29:08.332Z,12.21
2022-11-25T23:31:36.687Z,12.18
2022-11-25T23:34:05.422Z,12.17
2022-11-25T23:36:50.591Z,12.17
2022-11-25T23:39:22.690Z,12.15
2022-11-25T23:41:49.937Z,12.16
2022-11-25T23:44:27.086Z,12.13
2022-11-25T23:46:55.597Z,12.13
2022-11-25T23:49:22.223Z,12.12
2022-11-25T23:51:49.049Z,12.11
2022-11-25T23:54:16.916Z,12.11
2022-11-25T23:56:43.693Z,12.10
2022-11-25T23:59:14.594Z,12.09
